Impacts TAF Board
For situational awareness. Not to be used for flight planning purposes.
IDs:

KPDX - Portland Intl Arpt, OR, US

Issued at 0520 UTC 22 Oct 2021
Updated at 0741 UTC 22 Oct 2021
Potential Impact None Slight Moderate High
Time0653Z 22/08Z 22/09Z 22/10Z 22/11Z 22/12Z 22/13Z 22/14Z 22/15Z 22/16Z 22/17Z 22/18Z 22/19Z 22/20Z>>
Type OBS PRVL PRVL PRVL PRVL PRVL PRVL PRVL PRVL PRVL PRVL PRVL PRVL PRVL
VIS 10 >6 >6 >6 >6 >6 >6 >6 >6 >6 >6 >6 >6 >6
CIG 80 45 45 45 45 45 45 45 45 45 45 45 45 45
Cover OVC OVC OVC BKN BKN BKN BKN BKN BKN BKN BKN BKN BKN BKN
FltCat VFR VFR VFR VFR VFR VFR VFR VFR VFR VFR VFR VFR VFR VFR
WX -RA -RA -RA -SHRA -SHRA -SHRA -SHRA -SHRA -SHRA -SHRA -SHRA -SHRA -SHRA -SHRA
WDir 120 150 150 190 190 190 190 190 190 190 190 190 190 190
WSpd 8 7 7 7 7 7 7 7 7 7 7 7 7 7
WGst -- -- -- -- -- -- -- -- -- -- -- -- -- --
Raw TAF
KPDX 220520Z 2206/2306 13009KT 6SM -RA BKN030 OVC045
  FM220700 15007KT P6SM -RA SCT030 BKN045 OVC060
  FM221000 19007KT P6SM -SHRA BKN045 BKN060
  FM222100 20008KT P6SM -SHRA BKN040 BKN060


Raw METAR
KPDX 220653Z 12008KT 10SM -RA FEW050 OVC080 13/11 A2984 RMK AO2 SLP103 P0011 T01330111
KPDX 220553Z 14007KT 7SM RA FEW029 SCT045 OVC070 13/11 A2985 RMK AO2 SLP106 P0006 60067 T01330111 10189 20133 51011
KPDX 220537Z 15006KT 8SM RA FEW029 OVC070 13/11 A2985 RMK AO2 P0003 T01330111
KPDX 220453Z 13008KT 10SM -RA FEW005 BKN029 OVC044 14/11 A2983 RMK AO2 SLP099 P0011 T01390111

METAR Board
Radar Display
Forecast Discussion
For situational awareness. Not to be used for flight planning purposes.